createdAt,value
2022-11-17T00:00:13.792Z,101091.69
2022-11-17T00:02:40.283Z,101096.91
2022-11-17T00:05:07.068Z,101128.09
2022-11-17T00:07:33.572Z,101138.31
2022-11-17T00:09:59.974Z,101112.88
2022-11-17T00:12:32.475Z,101177.94
2022-11-17T00:14:59.436Z,101169.31
2022-11-17T00:17:25.895Z,101182.34
2022-11-17T00:19:52.441Z,101135.19
2022-11-17T00:22:18.892Z,101040.22
2022-11-17T00:24:45.323Z,101114.00
2022-11-17T00:27:12.405Z,101113.03
2022-11-17T00:29:39.521Z,101162.34
2022-11-17T00:32:11.285Z,101261.13
2022-11-17T00:34:37.716Z,101181.59
2022-11-17T00:37:05.883Z,101153.28
2022-11-17T00:39:32.795Z,101187.91
2022-11-17T00:41:59.174Z,101168.75
2022-11-17T00:44:26.548Z,101172.28
2022-11-17T00:46:52.924Z,101144.38
2022-11-17T00:49:19.603Z,101123.16
2022-11-17T00:51:46.042Z,101090.28
2022-11-17T00:54:13.299Z,101023.72
2022-11-17T00:56:40.284Z,100987.59
2022-11-17T00:59:06.691Z,101031.50
2022-11-17T01:01:33.184Z,101008.47
2022-11-17T01:04:00.564Z,100973.78
2022-11-17T01:06:26.982Z,100952.31
2022-11-17T01:08:53.362Z,100932.06
2022-11-17T01:11:19.816Z,100896.97
2022-11-17T01:13:48.197Z,100861.06
2022-11-17T01:16:17.683Z,100844.63
2022-11-17T01:18:46.120Z,100819.50
2022-11-17T01:21:14.037Z,100745.66
2022-11-17T01:23:42.580Z,100813.66
2022-11-17T01:26:14.785Z,100857.66
2022-11-17T01:28:41.980Z,100810.28
2022-11-17T01:31:11.859Z,100780.56
2022-11-17T01:33:38.341Z,100738.41
2022-11-17T01:36:12.107Z,100687.66
2022-11-17T01:38:38.669Z,100693.63
2022-11-17T01:41:07.444Z,100532.03
2022-11-17T01:43:43.420Z,100506.94
2022-11-17T01:46:25.798Z,100535.91
2022-11-17T01:48:54.521Z,100517.81
2022-11-17T01:51:22.527Z,100407.66
2022-11-17T01:53:50.640Z,100386.97
2022-11-17T01:56:30.945Z,100427.44
2022-11-17T01:59:12.841Z,100397.19
2022-11-17T02:01:39.365Z,100319.41
2022-11-17T02:04:05.806Z,100291.19
2022-11-17T02:06:36.048Z,100365.78
2022-11-17T02:09:03.706Z,100348.25
2022-11-17T02:11:32.433Z,100324.97
2022-11-17T02:13:58.930Z,100311.78
2022-11-17T02:16:25.288Z,100302.19
2022-11-17T02:18:51.694Z,100238.13
2022-11-17T02:21:27.259Z,100286.59
2022-11-17T02:24:02.725Z,100284.84
2022-11-17T02:26:51.839Z,100274.03
2022-11-17T02:29:35.919Z,100267.59
2022-11-17T02:32:10.659Z,100268.19
2022-11-17T02:34:39.752Z,100250.72
2022-11-17T02:37:31.268Z,100242.81
2022-11-17T02:40:08.938Z,100231.56
2022-11-17T02:42:47.166Z,100219.91
2022-11-17T02:45:22.408Z,100218.69
2022-11-17T02:47:53.296Z,100196.50
2022-11-17T02:50:27.848Z,100211.66
2022-11-17T02:52:54.935Z,100171.22
2022-11-17T02:55:21.394Z,100111.50
2022-11-17T02:57:47.789Z,100152.72
2022-11-17T03:00:19.342Z,100117.38
2022-11-17T03:02:57.659Z,100134.97
2022-11-17T03:05:26.752Z,100126.94
2022-11-17T03:08:02.258Z,100113.66
2022-11-17T03:11:01.425Z,100081.25
2022-11-17T03:14:00.929Z,100070.75
2022-11-17T03:16:56.345Z,100033.94
2022-11-17T03:19:32.083Z,99965.91
2022-11-17T03:22:07.549Z,99977.34
2022-11-17T03:24:39.653Z,100009.56
2022-11-17T03:27:13.239Z,99975.53
2022-11-17T03:29:44.523Z,100023.47
2022-11-17T03:32:12.360Z,99978.41
2022-11-17T03:34:44.467Z,100008.81
2022-11-17T03:37:13.171Z,99961.44
2022-11-17T03:39:47.937Z,100019.91
2022-11-17T03:42:20.968Z,100019.69
2022-11-17T03:44:53.419Z,99973.69
2022-11-17T03:47:22.549Z,99986.47
2022-11-17T03:50:06.367Z,99979.59
2022-11-17T03:52:35.053Z,100019.00
2022-11-17T03:55:02.680Z,100091.19
2022-11-17T03:58:00.952Z,100150.13
2022-11-17T04:00:27.350Z,100183.56
2022-11-17T04:02:56.486Z,100218.16
2022-11-17T04:05:22.885Z,100186.44
2022-11-17T04:07:49.290Z,100213.63
2022-11-17T04:10:20.622Z,100319.66
2022-11-17T04:12:48.461Z,100261.66
2022-11-17T04:15:14.942Z,100284.13
2022-11-17T04:17:42.485Z,100299.03
2022-11-17T04:20:09.737Z,100395.66
2022-11-17T04:22:36.080Z,100418.41
2022-11-17T04:25:02.481Z,100443.09
2022-11-17T04:27:28.831Z,100412.78
2022-11-17T04:29:55.219Z,100451.28
2022-11-17T04:32:21.612Z,100567.84
2022-11-17T04:34:47.958Z,100642.72
2022-11-17T04:37:14.346Z,100572.81
2022-11-17T04:39:40.714Z,100630.34
2022-11-17T04:42:07.147Z,100742.03
2022-11-17T04:44:33.531Z,100840.19
2022-11-17T04:47:00.384Z,100889.34
2022-11-17T04:49:26.808Z,100877.28
2022-11-17T04:51:54.034Z,100915.44
2022-11-17T04:54:23.339Z,100914.50
2022-11-17T04:56:50.362Z,101023.78
2022-11-17T04:59:17.292Z,101000.94
2022-11-17T05:01:45.061Z,101030.84
2022-11-17T05:04:13.818Z,101031.63
2022-11-17T05:06:42.877Z,101030.06
2022-11-17T05:09:15.128Z,100949.41
2022-11-17T05:11:42.568Z,100955.25
2022-11-17T05:14:09.376Z,100900.81
2022-11-17T05:16:35.869Z,100874.50
2022-11-17T05:19:02.981Z,100842.81
2022-11-17T05:21:29.420Z,100736.44
2022-11-17T05:23:56.377Z,100672.97
2022-11-17T05:26:26.578Z,100605.75
2022-11-17T05:28:55.330Z,100466.97
2022-11-17T05:31:21.981Z,100486.81
2022-11-17T05:33:48.431Z,100359.22
2022-11-17T05:36:14.952Z,100367.34
2022-11-17T05:38:41.405Z,100239.28
2022-11-17T05:41:07.979Z,100266.72
2022-11-17T05:43:34.819Z,100239.44
2022-11-17T05:46:01.471Z,100163.78
2022-11-17T05:48:28.288Z,100095.75
2022-11-17T05:50:55.974Z,100095.69
2022-11-17T05:53:23.955Z,100041.72
2022-11-17T05:55:50.708Z,99979.81
2022-11-17T05:58:28.134Z,99961.44
2022-11-17T06:00:57.254Z,100022.16
2022-11-17T06:03:34.293Z,99983.94
2022-11-17T06:06:01.311Z,99911.28
2022-11-17T06:08:28.511Z,99969.69
2022-11-17T06:10:55.474Z,100010.59
2022-11-17T06:13:21.884Z,99975.53
2022-11-17T06:15:48.250Z,100010.66
2022-11-17T06:18:19.806Z,99976.28
2022-11-17T06:20:49.725Z,99912.94
2022-11-17T06:23:18.870Z,99965.00
2022-11-17T06:25:45.627Z,99951.09
2022-11-17T06:28:14.801Z,99962.69
2022-11-17T06:30:42.344Z,99921.13
2022-11-17T06:33:12.759Z,99951.31
2022-11-17T06:35:40.769Z,99955.56
2022-11-17T06:38:07.135Z,99957.13
2022-11-17T06:40:33.614Z,99976.31
2022-11-17T06:43:00.049Z,99938.25
2022-11-17T06:45:26.873Z,100022.09
2022-11-17T06:47:53.874Z,100047.69
2022-11-17T06:50:20.966Z,100038.38
2022-11-17T06:52:47.350Z,100076.78
2022-11-17T06:55:13.896Z,100041.78
2022-11-17T06:57:40.328Z,100111.03
2022-11-17T07:00:07.585Z,100128.44
2022-11-17T07:02:34.080Z,100143.47
2022-11-17T07:05:00.518Z,100092.06
2022-11-17T07:07:26.981Z,100164.13
2022-11-17T07:09:53.486Z,100166.50
2022-11-17T07:12:19.926Z,100171.53
2022-11-17T07:14:46.734Z,100196.97
2022-11-17T07:17:13.163Z,100182.53
2022-11-17T07:19:39.601Z,100195.56
2022-11-17T07:22:06.041Z,100192.56
2022-11-17T07:24:32.464Z,100172.31
2022-11-17T07:26:58.916Z,100184.09
2022-11-17T07:29:25.356Z,100091.91
2022-11-17T07:31:51.847Z,100161.69
2022-11-17T07:34:18.445Z,100153.88
2022-11-17T07:36:44.981Z,100059.84
2022-11-17T07:39:11.504Z,100123.88
2022-11-17T07:41:38.140Z,100127.25
2022-11-17T07:44:04.712Z,100118.78
2022-11-17T07:46:31.127Z,100061.56
2022-11-17T07:48:57.608Z,100119.16
2022-11-17T07:51:24.240Z,100035.41
2022-11-17T07:53:50.717Z,100105.19
2022-11-17T07:56:17.168Z,100070.72
2022-11-17T07:58:43.652Z,100028.09
2022-11-17T08:01:13.285Z,100107.06
2022-11-17T08:03:39.921Z,100155.31
2022-11-17T08:06:07.762Z,100120.69
2022-11-17T08:08:34.987Z,100124.06
2022-11-17T08:11:09.980Z,100123.66
2022-11-17T08:13:37.617Z,100047.53
2022-11-17T08:16:04.388Z,100128.59
2022-11-17T08:18:31.286Z,100082.38
2022-11-17T08:21:09.748Z,100169.41
2022-11-17T08:23:37.048Z,100177.63
2022-11-17T08:26:04.639Z,100165.50
2022-11-17T08:28:31.880Z,100182.09
2022-11-17T08:31:01.364Z,100188.88
2022-11-17T08:33:28.539Z,100134.81
2022-11-17T08:35:59.042Z,100240.50
2022-11-17T08:38:26.153Z,100234.28
2022-11-17T08:40:52.688Z,100239.50
2022-11-17T08:43:19.128Z,100289.19
2022-11-17T08:45:45.554Z,100231.66
2022-11-17T08:48:11.989Z,100207.25
2022-11-17T08:50:38.693Z,100199.50
2022-11-17T08:53:05.179Z,100326.06
2022-11-17T08:55:33.682Z,100316.66
2022-11-17T08:58:04.068Z,100342.50
2022-11-17T09:00:30.572Z,100351.91
2022-11-17T09:02:56.975Z,100238.88
2022-11-17T09:05:23.451Z,100343.69
2022-11-17T09:07:50.064Z,100358.91
2022-11-17T09:10:17.208Z,100369.34
2022-11-17T09:12:43.668Z,100353.13
2022-11-17T09:15:10.576Z,100351.50
2022-11-17T09:17:37.004Z,100328.25
2022-11-17T09:20:03.619Z,100296.84
2022-11-17T09:22:30.075Z,100212.84
2022-11-17T09:24:56.502Z,100272.34
2022-11-17T09:27:22.936Z,100178.44
2022-11-17T09:29:49.357Z,100262.34
2022-11-17T09:32:15.870Z,100263.56
2022-11-17T09:34:42.401Z,100261.16
2022-11-17T09:37:08.849Z,100161.59
2022-11-17T09:39:35.283Z,100213.25
2022-11-17T09:42:01.780Z,100115.56
2022-11-17T09:44:31.142Z,100226.16
2022-11-17T09:47:19.509Z,100164.44
2022-11-17T09:49:58.088Z,100133.16
2022-11-17T09:52:39.794Z,100131.09
2022-11-17T09:55:09.340Z,100095.97
2022-11-17T09:57:41.970Z,100075.41
2022-11-17T10:00:14.963Z,100043.41
2022-11-17T10:02:45.520Z,99994.25
2022-11-17T10:05:20.676Z,99969.50
2022-11-17T10:07:50.069Z,100057.38
2022-11-17T10:10:21.702Z,99943.19
2022-11-17T10:12:55.481Z,99979.41
2022-11-17T10:15:28.336Z,99878.78
2022-11-17T10:17:54.782Z,99943.28
2022-11-17T10:20:21.290Z,99945.66
2022-11-17T10:22:49.987Z,99956.50
2022-11-17T10:25:40.934Z,99884.56
2022-11-17T10:28:09.587Z,99920.13
2022-11-17T10:30:36.346Z,99943.84
2022-11-17T10:33:03.834Z,99873.34
2022-11-17T10:35:32.044Z,99867.19
2022-11-17T10:38:02.698Z,99852.06
2022-11-17T10:40:32.068Z,99798.94
2022-11-17T10:43:13.613Z,99839.41
2022-11-17T10:45:51.311Z,99829.50
2022-11-17T10:48:20.440Z,99810.03
2022-11-17T10:51:15.868Z,99807.72
2022-11-17T10:53:46.002Z,99773.78
2022-11-17T10:56:16.519Z,99782.31
2022-11-17T10:59:32.160Z,99776.03
2022-11-17T11:02:18.585Z,99719.13
2022-11-17T11:04:45.038Z,99721.56
2022-11-17T11:07:20.631Z,99689.84
2022-11-17T11:09:55.989Z,99732.09
2022-11-17T11:12:34.308Z,99664.50
2022-11-17T11:15:02.340Z,99694.47
2022-11-17T11:17:29.781Z,99626.44
2022-11-17T11:19:56.588Z,99683.13
2022-11-17T11:22:41.507Z,99618.75
2022-11-17T11:25:33.034Z,99654.31
2022-11-17T11:28:31.196Z,99628.34
2022-11-17T11:31:15.718Z,99605.91
2022-11-17T11:33:50.147Z,99588.00
2022-11-17T11:36:19.352Z,99563.28
2022-11-17T11:38:55.330Z,99478.72
2022-11-17T11:41:49.114Z,99519.59
2022-11-17T11:44:35.594Z,99496.50
2022-11-17T11:47:24.418Z,99496.69
2022-11-17T11:50:02.798Z,99467.22
2022-11-17T11:52:35.475Z,99402.22
2022-11-17T11:55:07.200Z,99387.53
2022-11-17T11:57:37.167Z,99423.44
2022-11-17T12:00:14.877Z,99403.19
2022-11-17T12:02:53.952Z,99360.34
2022-11-17T12:05:45.737Z,99414.50
2022-11-17T12:08:18.022Z,99407.84
2022-11-17T12:10:51.168Z,99387.25
2022-11-17T12:13:20.993Z,99325.78
2022-11-17T12:15:47.735Z,99369.78
2022-11-17T12:18:30.747Z,99354.34
2022-11-17T12:21:05.785Z,99367.66
2022-11-17T12:23:50.655Z,99360.22
2022-11-17T12:26:31.506Z,99356.75
2022-11-17T12:29:19.589Z,99357.69
2022-11-17T12:31:57.570Z,99349.97
2022-11-17T12:34:25.564Z,99341.19
2022-11-17T12:37:09.967Z,99287.44
2022-11-17T12:39:55.242Z,99341.41
2022-11-17T12:42:21.761Z,99321.28
2022-11-17T12:45:01.264Z,99328.69
2022-11-17T12:47:41.924Z,99326.31
2022-11-17T12:50:08.336Z,99321.97
2022-11-17T12:52:37.598Z,99314.06
2022-11-17T12:55:14.030Z,99311.84
2022-11-17T12:57:44.109Z,99311.78
2022-11-17T13:00:19.772Z,99313.13
2022-11-17T13:03:11.887Z,99314.69
2022-11-17T13:05:38.332Z,99311.53
2022-11-17T13:08:13.871Z,99304.13
2022-11-17T13:10:40.987Z,99308.16
2022-11-17T13:13:20.752Z,99228.22
2022-11-17T13:15:56.709Z,99275.13
2022-11-17T13:18:27.861Z,99273.72
2022-11-17T13:20:54.382Z,99297.34
2022-11-17T13:23:26.895Z,99279.78
2022-11-17T13:26:15.823Z,99281.66
2022-11-17T13:28:43.332Z,99230.44
2022-11-17T13:31:18.087Z,99217.00
2022-11-17T13:33:55.432Z,99273.91
2022-11-17T13:36:21.915Z,99221.34
2022-11-17T13:38:53.419Z,99282.75
2022-11-17T13:41:22.196Z,99209.31
2022-11-17T13:43:50.920Z,99214.06
2022-11-17T13:46:17.745Z,99271.34
2022-11-17T13:48:46.127Z,99218.78
2022-11-17T13:51:27.511Z,99269.03
2022-11-17T13:53:55.808Z,99246.19
2022-11-17T13:56:25.135Z,99252.88
2022-11-17T13:58:52.332Z,99261.19
2022-11-17T14:01:25.208Z,99247.59
2022-11-17T14:03:52.275Z,99200.38
2022-11-17T14:06:18.863Z,99254.56
2022-11-17T14:09:04.063Z,99253.44
2022-11-17T14:11:30.743Z,99202.63
2022-11-17T14:13:59.256Z,99251.19
2022-11-17T14:16:28.941Z,99264.78
2022-11-17T14:19:00.860Z,99187.41
2022-11-17T14:21:27.981Z,99246.31
2022-11-17T14:24:03.049Z,99247.34
2022-11-17T14:26:29.575Z,99218.84
2022-11-17T14:28:56.442Z,99252.91
2022-11-17T14:31:22.867Z,99193.28
2022-11-17T14:33:49.397Z,99192.19
2022-11-17T14:36:17.323Z,99240.63
2022-11-17T14:38:45.105Z,99242.22
2022-11-17T14:41:11.535Z,99259.53
2022-11-17T14:43:37.945Z,99249.75
2022-11-17T14:46:04.429Z,99241.38
2022-11-17T14:48:30.856Z,99251.38
2022-11-17T14:50:59.141Z,99194.75
2022-11-17T14:53:26.041Z,99189.16
2022-11-17T14:55:53.105Z,99251.75
2022-11-17T14:58:19.585Z,99252.81
2022-11-17T15:00:46.037Z,99190.75
2022-11-17T15:03:12.564Z,99258.97
2022-11-17T15:05:45.998Z,99255.41
2022-11-17T15:08:13.201Z,99232.22
2022-11-17T15:10:44.088Z,99251.69
2022-11-17T15:13:10.645Z,99195.66
2022-11-17T15:15:37.133Z,99252.28
2022-11-17T15:18:03.638Z,99243.00
2022-11-17T15:20:30.075Z,99238.34
2022-11-17T15:23:01.862Z,99248.03
2022-11-17T15:25:29.565Z,99256.69
2022-11-17T15:27:56.444Z,99262.72
2022-11-17T15:30:22.999Z,99221.53
2022-11-17T15:32:49.404Z,99266.38
2022-11-17T15:35:16.095Z,99279.19
2022-11-17T15:37:42.533Z,99264.31
2022-11-17T15:40:09.655Z,99279.06
2022-11-17T15:42:36.103Z,99276.94
2022-11-17T15:45:02.563Z,99256.84
2022-11-17T15:47:28.958Z,99225.50
2022-11-17T15:49:55.397Z,99278.66
2022-11-17T15:52:41.518Z,99276.03
2022-11-17T15:55:08.449Z,99274.22
2022-11-17T15:57:34.893Z,99270.31
2022-11-17T16:00:01.346Z,99273.44
2022-11-17T16:02:27.765Z,99275.41
2022-11-17T16:04:54.199Z,99265.81
2022-11-17T16:07:20.738Z,99272.56
2022-11-17T16:09:49.206Z,99232.63
2022-11-17T16:12:16.955Z,99283.22
2022-11-17T16:14:43.455Z,99285.56
2022-11-17T16:17:09.897Z,99288.91
2022-11-17T16:19:36.338Z,99278.50
2022-11-17T16:22:02.818Z,99298.16
2022-11-17T16:24:29.256Z,99291.38
2022-11-17T16:26:55.667Z,99275.81
2022-11-17T16:29:22.094Z,99230.16
2022-11-17T16:31:48.540Z,99291.78
2022-11-17T16:34:15.969Z,99284.81
2022-11-17T16:36:43.524Z,99297.56
2022-11-17T16:39:13.162Z,99283.63
2022-11-17T16:41:41.904Z,99293.13
2022-11-17T16:44:10.601Z,99287.19
2022-11-17T16:46:37.668Z,99237.22
2022-11-17T16:49:09.712Z,99248.56
2022-11-17T16:51:36.159Z,99291.16
2022-11-17T16:54:05.387Z,99309.31
2022-11-17T16:56:32.738Z,99253.41
2022-11-17T16:58:59.532Z,99306.34
2022-11-17T17:01:28.343Z,99308.84
2022-11-17T17:03:56.369Z,99309.81
2022-11-17T17:06:23.005Z,99260.03
2022-11-17T17:08:53.764Z,99319.84
2022-11-17T17:11:20.200Z,99308.69
2022-11-17T17:13:46.691Z,99329.34
2022-11-17T17:16:16.380Z,99271.94
2022-11-17T17:18:43.084Z,99329.78
2022-11-17T17:21:16.068Z,99314.47
2022-11-17T17:23:42.761Z,99337.78
2022-11-17T17:26:11.806Z,99285.38
2022-11-17T17:28:38.570Z,99346.09
2022-11-17T17:31:05.093Z,99332.78
2022-11-17T17:33:32.630Z,99298.00
2022-11-17T17:36:03.593Z,99354.84
2022-11-17T17:38:30.468Z,99307.31
2022-11-17T17:40:57.048Z,99359.97
2022-11-17T17:43:23.471Z,99361.41
2022-11-17T17:45:49.926Z,99369.38
2022-11-17T17:48:16.383Z,99353.56
2022-11-17T17:50:42.845Z,99361.47
2022-11-17T17:53:09.324Z,99315.13
2022-11-17T17:55:35.802Z,99368.44
2022-11-17T17:58:02.232Z,99350.63
2022-11-17T18:00:28.670Z,99321.31
2022-11-17T18:02:55.203Z,99321.75
2022-11-17T18:05:21.658Z,99369.97
2022-11-17T18:07:48.842Z,99380.00
2022-11-17T18:10:15.818Z,99333.53
2022-11-17T18:12:42.239Z,99369.94
2022-11-17T18:15:09.301Z,99386.03
2022-11-17T18:17:35.916Z,99389.53
2022-11-17T18:20:02.417Z,99399.72
2022-11-17T18:22:28.825Z,99367.41
2022-11-17T18:24:58.324Z,99404.75
2022-11-17T18:27:24.964Z,99350.34
2022-11-17T18:29:51.434Z,99404.06
2022-11-17T18:32:17.849Z,99351.03
2022-11-17T18:34:44.253Z,99350.91
2022-11-17T18:37:10.669Z,99361.31
2022-11-17T18:39:37.092Z,99406.78
2022-11-17T18:42:03.814Z,99353.66
2022-11-17T18:44:30.235Z,99418.44
2022-11-17T18:47:02.339Z,99417.66
2022-11-17T18:49:30.592Z,99412.94
2022-11-17T18:51:57.040Z,99417.69
2022-11-17T18:54:23.491Z,99428.91
2022-11-17T18:56:49.907Z,99416.56
2022-11-17T18:59:16.776Z,99369.41
2022-11-17T19:01:43.792Z,99356.47
2022-11-17T19:04:12.980Z,99433.00
2022-11-17T19:06:39.531Z,99382.78
2022-11-17T19:09:06.074Z,99371.88
2022-11-17T19:11:32.611Z,99440.34
2022-11-17T19:14:01.291Z,99430.50
2022-11-17T19:16:28.879Z,99442.53
2022-11-17T19:18:56.552Z,99445.69
2022-11-17T19:21:25.723Z,99393.97
2022-11-17T19:23:53.889Z,99391.84
2022-11-17T19:26:28.729Z,99435.84
2022-11-17T19:28:56.601Z,99388.88
2022-11-17T19:31:23.229Z,99389.00
2022-11-17T19:33:50.391Z,99390.81
2022-11-17T19:36:25.097Z,99395.44
2022-11-17T19:38:53.124Z,99454.50
2022-11-17T19:41:31.044Z,99456.22
2022-11-17T19:44:03.201Z,99408.00
2022-11-17T19:46:30.065Z,99467.66
2022-11-17T19:48:57.320Z,99471.72
2022-11-17T19:51:26.577Z,99425.88
2022-11-17T19:53:55.470Z,99467.66
2022-11-17T19:56:23.738Z,99470.50
2022-11-17T19:58:50.624Z,99468.78
2022-11-17T20:01:20.041Z,99440.84
2022-11-17T20:03:47.237Z,99454.97
2022-11-17T20:06:16.245Z,99418.41
2022-11-17T20:08:43.330Z,99484.41
2022-11-17T20:11:12.706Z,99480.13
2022-11-17T20:13:40.068Z,99424.63
2022-11-17T20:16:11.914Z,99447.59
2022-11-17T20:18:39.357Z,99470.84
2022-11-17T20:21:06.696Z,99463.81
2022-11-17T20:23:34.505Z,99460.97
2022-11-17T20:26:10.935Z,99439.56
2022-11-17T20:28:38.425Z,99428.00
2022-11-17T20:31:09.958Z,99481.91
2022-11-17T20:33:38.003Z,99420.56
2022-11-17T20:36:05.564Z,99420.84
2022-11-17T20:38:32.008Z,99479.31
2022-11-17T20:40:59.544Z,99432.03
2022-11-17T20:43:27.068Z,99451.34
2022-11-17T20:45:54.232Z,99487.22
2022-11-17T20:48:21.367Z,99462.88
2022-11-17T20:51:02.891Z,99492.88
2022-11-17T20:53:29.528Z,99491.41
2022-11-17T20:55:57.291Z,99488.13
2022-11-17T20:58:25.166Z,99481.88
2022-11-17T21:00:52.561Z,99482.44
2022-11-17T21:03:19.523Z,99490.56
2022-11-17T21:05:59.740Z,99477.28
2022-11-17T21:08:29.083Z,99477.69
2022-11-17T21:10:57.276Z,99443.88
2022-11-17T21:13:24.401Z,99486.16
2022-11-17T21:16:06.177Z,99450.22
2022-11-17T21:18:32.695Z,99481.88
2022-11-17T21:20:59.248Z,99439.66
2022-11-17T21:23:26.705Z,99513.56
2022-11-17T21:25:53.349Z,99466.44
2022-11-17T21:28:19.771Z,99523.50
2022-11-17T21:30:46.310Z,99521.34
2022-11-17T21:33:12.754Z,99516.03
2022-11-17T21:35:39.225Z,99536.69
2022-11-17T21:38:05.607Z,99535.88
2022-11-17T21:40:32.086Z,99492.88
2022-11-17T21:42:59.265Z,99546.28
2022-11-17T21:45:25.740Z,99509.50
2022-11-17T21:47:58.040Z,99526.06
2022-11-17T21:50:25.779Z,99597.97
2022-11-17T21:52:52.179Z,99575.94
2022-11-17T21:55:18.586Z,99602.28
2022-11-17T21:57:45.005Z,99617.22
2022-11-17T22:00:11.725Z,99601.13
2022-11-17T22:02:38.173Z,99572.97
2022-11-17T22:05:04.914Z,99622.13
2022-11-17T22:07:31.380Z,99605.78
2022-11-17T22:09:57.977Z,99671.28
2022-11-17T22:12:24.368Z,99688.25
2022-11-17T22:14:50.893Z,99701.03
2022-11-17T22:17:17.357Z,99711.22
2022-11-17T22:19:43.852Z,99657.53
2022-11-17T22:22:10.287Z,99683.69
2022-11-17T22:24:39.554Z,99748.59
2022-11-17T22:27:06.274Z,99753.19
2022-11-17T22:29:33.249Z,99756.22
2022-11-17T22:31:59.730Z,99773.41
2022-11-17T22:34:26.180Z,99782.41
2022-11-17T22:36:52.604Z,99793.00
2022-11-17T22:39:19.523Z,99799.63
2022-11-17T22:41:46.215Z,99791.34
2022-11-17T22:44:14.652Z,99824.47
2022-11-17T22:46:41.737Z,99816.09
2022-11-17T22:49:08.255Z,99778.06
2022-11-17T22:51:34.784Z,99775.50
2022-11-17T22:54:01.287Z,99848.25
2022-11-17T22:56:27.726Z,99866.63
2022-11-17T22:58:59.324Z,99831.59
2022-11-17T23:01:26.251Z,99822.47
2022-11-17T23:03:52.820Z,99901.06
2022-11-17T23:06:19.360Z,99901.44
2022-11-17T23:08:48.144Z,99926.19
2022-11-17T23:11:36.019Z,99929.03
2022-11-17T23:14:00.978Z,99896.16
2022-11-17T23:16:27.467Z,99949.03
2022-11-17T23:18:55.692Z,99992.97
2022-11-17T23:21:22.982Z,99989.16
2022-11-17T23:23:49.526Z,99975.81
2022-11-17T23:26:16.262Z,99970.44
2022-11-17T23:28:43.651Z,100023.91
2022-11-17T23:31:13.346Z,100040.69
2022-11-17T23:33:42.546Z,100023.75
2022-11-17T23:36:13.619Z,100064.06
2022-11-17T23:38:40.253Z,100046.09
2022-11-17T23:41:08.720Z,100100.63
2022-11-17T23:43:35.213Z,100066.25
2022-11-17T23:46:07.332Z,100140.00
2022-11-17T23:48:33.791Z,100105.81
2022-11-17T23:51:04.810Z,100115.19
2022-11-17T23:53:31.344Z,100122.78
2022-11-17T23:55:58.144Z,100133.53
2022-11-17T23:58:24.635Z,100219.06
